x

Northern Hawaii One - 245nm Ne Of Honolulu Hi (51000) Wave Buoy

8:50pm - Fri 27th May 2016 All times are HST. -10 hours from GMT.

  • Sig Wave height 5.2ft
  • Swell Direction
  • Peak Period 7s
  • Average Period 6s
  • Wind
    13mph, 16mph gusts
  • Sea Temp 77°f
  • Air Temp 75°f
  • Sea Pressure 1020.3mb
  • Northern Hawaii One - 245nm Ne Of Honolulu Hi
  • Northern Hawaii One - 245nm Ne Of Honolulu Hi

More Historic Weather Station data

Upgrade to MSW Pro to gain access to the past 30 days of data for over 8000 Wavebouys and Weather Stations around the globe.

Join Pro

Comparision Forecast

View Surf forecast
   
Fri 05/27 8:50pm 5ft 7s 6s 13 16 mph 1020.3mb 77f 75f
7:50pm 5ft 8s 6s 11 16 mph 1020mb 77f 75f
6:50pm 5ft 8s 6s 13 16 mph 1019.5mb 77f 76f
5:50pm 5ft 8s 6s 11 13 mph 1019mb 77f 76f
4:50pm 4.5ft 8s 6s 13 16 mph 1018.9mb 77f 76f
3:50pm 5ft 7s 6s 13 16 mph 1018.9mb 77f 76f
2:50pm 5ft 10s 6s 11 16 mph 1019.4mb 77f 76f
1:50pm 5ft 8s 6s 13 16 mph 1019.8mb 77f 76f
12:50pm 4.5ft 11s 6s 13 16 mph 1020.3mb 77f 76f
11:50am 4.5ft 8s 6s 13 16 mph 1020.7mb 77f 76f
10:50am 4.5ft 8s 6s 13 16 mph 1021mb 77f 76f
9:50am 4.5ft 8s 5s 13 16 mph 1021mb 77f 76f
8:50am 4.5ft 8s 5s 16 18 mph 1020.7mb 77f 76f
7:50am 4.5ft 8s 5s 13 16 mph 1020.6mb 77f 76f
6:50am 4.5ft 7s 5s 13 16 mph 1020.4mb 77f 76f
5:50am 4.5ft 8s 6s 13
mph
1020.1mb 77f 76f
4:50am 4ft 8s 6s 13 16 mph 1019.9mb 77f 76f
3:50am 4ft 8s 5s 13 16 mph 1019.8mb 77f 75f
2:50am 4ft 8s 5s 9 11 mph 1019.9mb 77f 75f
1:50am 3.5ft 8s 5s 11 13 mph 1020.1mb 77f 75f
12:50am 4ft 7s 5s 13 16 mph 1020.4mb 77f 74f
Thu 05/26 11:50pm 4ft 7s 5s 13 16 mph 1020.7mb 77f 75f
10:50pm 3.5ft 7s 5s 16 18 mph 1021.1mb 77f 75f
9:50pm 4.5ft 8s 5s 16 18 mph 1021.4mb 77f 75f
8:50pm 4.5ft 8s 6s 11 16 mph 1021.2mb 77f 76f
7:50pm 4ft 8s 6s 13 16 mph 1020.7mb 77f 76f
6:50pm 4ft 7s 6s 13 16 mph 1020.4mb 77f 76f
5:50pm 4ft 7s 6s 11 13 mph 1020mb 77f 76f
4:50pm 4ft 8s 6s 11 13 mph 1019.8mb 78f 76f
3:50pm 4ft 8s 5s 11 13 mph 1020mb 78f 76f
2:50pm 4ft 8s 5s 13 16 mph 1020.1mb 77f 76f
12:50pm 4.5ft 7s 5s 11 13 mph 1020.7mb 77f 76f
11:50am 4.5ft 7s 5s 16
mph
1021mb 77f 76f
10:50am 4.5ft 7s 5s 16 18 mph 1021mb 77f 76f
9:50am 4ft 7s 5s 13 18 mph 1021.1mb 77f 75f
8:50am 4.5ft 7s 6s 16 18 mph 1021.1mb 77f 75f
7:50am 4.5ft 7s 5s 13 16 mph 1021.2mb 77f 75f
6:50am 4ft 7s 5s 9 11 mph 1021.2mb 77f 74f
5:50am 4ft 7s 5s 11 13 mph 1020.6mb 77f 75f
4:50am 4ft 7s 5s 11 13 mph 1020.3mb 77f 75f
3:50am 4ft 7s 5s 13 16 mph 1019.9mb 77f 75f
2:50am 4.5ft 7s 6s 11 13 mph 1019.9mb 77f 75f
1:50am 4.5ft 8s 5s 13 18 mph 1020.1mb 77f 75f
12:50am 4ft 8s 5s 13 16 mph 1020.4mb 77f 75f
Wed 05/25 11:50pm 4.5ft 8s 5s 13 16 mph 1020.8mb 77f 75f
9:50pm 5ft 8s 5s 16 20 mph 1021.1mb 77f 72f
8:50pm 5ft 8s 6s 16 20 mph 1020.9mb 77f 74f
7:50pm 4.5ft 8s 6s 13 16 mph 1020.3mb 77f 76f
6:50pm 4.5ft 7s 6s 13 16 mph 1019.5mb 77f 76f
5:50pm 4.5ft 8s 5s 13 16 mph 1018.8mb 77f 75f
4:50pm 4.5ft 8s 6s 18 20 mph 1018.1mb 77f 76f
3:50pm 4.5ft 7s 5s 13 16 mph 1018.4mb 77f 74f
2:50pm 4.5ft 8s 5s 9 13 mph 1019mb 77f 72f
1:50pm 4.5ft 8s 6s 16 20 mph 1019.1mb 77f 74f
12:50pm 5ft 8s 6s 11 13 mph 1019.4mb 77f 75f
11:50am 5ft 8s 5s 9 11 mph 1019.9mb 77f 75f
10:50am 4.5ft 7s 5s 18 20 mph 1020mb 77f 73f
9:50am 5ft 7s 6s 16 20 mph 1019.9mb 77f 75f
8:50am 5ft 8s 6s 13 16 mph 1020mb 77f 74f
7:50am 4.5ft 8s 6s 13 16 mph 1019.6mb 77f 75f
6:50am 4.5ft 8s 6s 11 13 mph 1018.9mb 77f 75f
5:50am 5ft 8s 6s 11 13 mph 1018.2mb 77f 75f
4:50am 4.5ft 8s 6s 13 16 mph 1018mb 77f 74f
3:50am 5ft 8s 6s 11 13 mph 1017.9mb 77f 74f
2:50am 5ft 8s 6s 11 16 mph 1017.9mb 77f 74f
1:50am 5ft 7s 6s 13 16 mph 1018.3mb 77f 74f
12:50am 5ft 8s 6s 13 16 mph 1018.9mb 77f 74f
Tue 05/24 11:50pm 5ft 8s 6s 13 16 mph 1019.5mb 77f 74f
10:50pm 5ft 8s 6s 16 20 mph 1019.5mb 77f 75f
9:50pm 5ft 8s 6s 16 18 mph 1019.6mb 77f 75f
8:50pm 5.5ft 8s 6s 16 18 mph 1019.5mb 77f 75f
7:50pm 5ft 8s 6s 16 20 mph 1019.1mb 77f 75f
6:50pm 5.5ft 7s 6s 18 20 mph 1018.6mb 77f 75f
5:50pm 6ft 8s 6s 18 22 mph 1018.1mb 77f 75f
4:50pm 6ft 8s 6s 18 22 mph 1017.9mb 77f 75f
3:50pm 6ft 8s 5s 18 22 mph 1018mb 77f 75f
2:50pm 6ft 8s 6s 20 22 mph 1018.3mb 77f 75f
1:50pm 6ft 8s 5s 20 22 mph 1018.9mb 77f 75f
12:50pm 6ft 9s 6s 20 22 mph 1019.2mb 77f 75f
11:50am 6ft 8s 6s 18 22 mph 1019.7mb 77f 75f
10:50am 6ft 8s 6s 20 22 mph 1020mb 77f 75f
9:50am 6ft 8s 6s 20 22 mph 1020mb 77f 75f
8:50am 6ft 8s 6s 20 25 mph 1019.9mb 77f 74f